This is the latest recevied weather packets stored in our database for station/object RA1AMO-10. If no packets are shown the sender has not sent any weather packets the latest 10 day(s).
| Time | Temp. | Humidity | Pressure | Rain* | Wind** | Luminosity | Snow |
|---|---|---|---|---|---|---|---|
| 1777653144 | 15° C | 44% | 1014.4 hPa | - | - | - | - |
| 1777652244 | 16.11° C | 42% | 1014.4 hPa | - | - | - | - |
| 1777651344 | 16.67° C | 39% | 1014.5 hPa | - | - | - | - |
| 1777650444 | 16.67° C | 40% | 1014.7 hPa | - | - | - | - |
| 1777649543 | 16.67° C | 39% | 1014.8 hPa | - | - | - | - |
| 1777648643 | 16.67° C | 39% | 1015 hPa | - | - | - | - |
| 1777647743 | 17.22° C | 39% | 1015.2 hPa | - | - | - | - |
| 1777646843 | 16.11° C | 41% | 1015.4 hPa | - | - | - | - |
| 1777645943 | 17.22° C | 39% | 1015.5 hPa | - | - | - | - |
| 1777645043 | 17.22° C | 37% | 1015.6 hPa | - | - | - | - |
| 1777644142 | 16.11° C | 38% | 1015.8 hPa | - | - | - | - |
| 1777643242 | 17.22° C | 37% | 1015.9 hPa | - | - | - | - |
| 1777642342 | 17.78° C | 36% | 1016 hPa | - | - | - | - |
| 1777641442 | 17.22° C | 38% | 1016.2 hPa | - | - | - | - |
| 1777640542 | 17.78° C | 35% | 1016.4 hPa | - | - | - | - |
| 1777639641 | 17.78° C | 36% | 1016.4 hPa | - | - | - | - |
| 1777638741 | 16.67° C | 38% | 1016.5 hPa | - | - | - | - |
| 1777637841 | 17.22° C | 37% | 1016.7 hPa | - | - | - | - |
| 1777636941 | 15.56° C | 39% | 1016.9 hPa | - | - | - | - |
| 1777636041 | 15° C | 40% | 1017.3 hPa | - | - | - | - |
| 1777635144 | 16.11° C | 38% | 1017.2 hPa | - | - | - | - |
| 1777634239 | 15° C | 40% | 1017.4 hPa | - | - | - | - |
| 1777633339 | 13.89° C | 39% | 1017.6 hPa | - | - | - | - |
| 1777632439 | 12.78° C | 44% | 1017.8 hPa | - | - | - | - |
| 1777631539 | 12.22° C | 46% | 1017.9 hPa | - | - | - | - |
* Rain since midnight (hover to see other rain measurements)
** Current wind speed in m/s (hover to see current wind gust speed)